createdAt,value
2017-06-19T00:00:05.041Z,101508.09
2017-06-19T00:02:31.559Z,101510.98
2017-06-19T00:04:57.997Z,101512.83
2017-06-19T00:07:26.405Z,101511.41
2017-06-19T00:09:52.787Z,101509.19
2017-06-19T00:12:19.181Z,101504.16
2017-06-19T00:14:45.653Z,101506.58
2017-06-19T00:17:12.194Z,101507.58
2017-06-19T00:19:38.586Z,101505.06
2017-06-19T00:22:05.038Z,101501.89
2017-06-19T00:38:54.111Z,101508.37
2017-06-19T00:41:20.457Z,101508.73
2017-06-19T00:43:46.866Z,101506.22
2017-06-19T00:46:13.256Z,101503.02
2017-06-19T00:48:39.681Z,101507.32
2017-06-19T00:51:06.016Z,101504.05
2017-06-19T00:53:32.369Z,101505.63
2017-06-19T00:55:58.704Z,101500.83
2017-06-19T00:58:25.056Z,101498.42
2017-06-19T11:38:56.069Z,101200.58
2017-06-19T11:41:22.418Z,101193.78
2017-06-19T11:43:48.857Z,101195.07
2017-06-19T11:46:15.211Z,101195.17
2017-06-19T11:48:41.583Z,101180.75
2017-06-19T11:51:07.952Z,101178.00
2017-06-19T11:53:34.362Z,101181.34
2017-06-19T11:56:00.760Z,101183.39
2017-06-19T11:58:27.115Z,101178.41
2017-06-19T12:00:53.493Z,101168.97
2017-06-19T12:03:19.849Z,101174.22
2017-06-19T12:05:46.237Z,101170.63
2017-06-19T12:08:12.620Z,101160.61
2017-06-19T12:10:38.998Z,101161.45
2017-06-19T12:13:05.363Z,101152.77
2017-06-19T12:15:31.697Z,101153.54
2017-06-19T12:17:58.059Z,101143.34
2017-06-19T12:20:24.452Z,101138.05
2017-06-19T12:22:50.791Z,101136.52
2017-06-19T12:25:17.128Z,101137.14
2017-06-19T12:27:43.450Z,101134.36
2017-06-19T12:30:09.813Z,101135.98
2017-06-19T12:32:36.171Z,101123.81
2017-06-19T12:35:02.546Z,101130.31
2017-06-19T12:37:28.945Z,101119.88
2017-06-19T12:39:55.293Z,101122.92
2017-06-19T12:42:21.665Z,101122.15
2017-06-19T12:44:48.046Z,101106.93
2017-06-19T12:47:14.446Z,101111.78
2017-06-19T12:49:40.812Z,101104.83
2017-06-19T12:52:07.217Z,101100.33
2017-06-19T12:54:33.632Z,101097.27
2017-06-19T12:56:59.981Z,101087.22
2017-06-19T12:59:26.343Z,101095.03
2017-06-19T13:01:52.714Z,101091.39
2017-06-19T13:04:19.071Z,101086.78
2017-06-19T13:06:45.429Z,101077.27
2017-06-19T13:09:11.758Z,101087.66
2017-06-19T13:11:38.150Z,101078.59
2017-06-19T13:14:04.522Z,101079.70
2017-06-19T13:16:30.875Z,101076.73
2017-06-19T13:18:57.240Z,101068.62
2017-06-19T13:21:23.666Z,101071.19
2017-06-19T13:23:50.074Z,101070.41
2017-06-19T13:26:16.413Z,101062.33
2017-06-19T13:28:42.898Z,101059.16
2017-06-19T13:31:09.273Z,101067.37
2017-06-19T13:33:35.619Z,101064.49
2017-06-19T13:36:01.971Z,101061.52
2017-06-19T13:38:28.326Z,101062.17
2017-06-19T13:40:54.669Z,101063.69
2017-06-19T13:43:21.015Z,101058.30
2017-06-19T13:45:47.398Z,101062.89
2017-06-19T13:48:13.774Z,101063.55
2017-06-19T13:50:40.120Z,101055.74
2017-06-19T13:53:06.500Z,101051.52
2017-06-19T13:55:32.874Z,101049.06
2017-06-19T13:57:59.306Z,101047.88
2017-06-19T14:00:25.683Z,101045.23
2017-06-19T14:02:52.025Z,101043.95
2017-06-19T14:05:18.360Z,101034.00
2017-06-19T14:07:44.781Z,101029.81
2017-06-19T14:10:11.169Z,101029.31
2017-06-19T14:12:37.525Z,101021.39
2017-06-19T14:15:03.881Z,101027.01
2017-06-19T14:17:30.267Z,101022.92
2017-06-19T14:19:56.605Z,101021.70
2017-06-19T14:22:22.947Z,101017.03
2017-06-19T14:24:49.298Z,101016.95
2017-06-19T14:27:15.653Z,101012.12
2017-06-19T14:29:42.008Z,101008.34
2017-06-19T14:32:08.382Z,100997.09
2017-06-19T14:34:34.745Z,100995.06
2017-06-19T14:37:01.123Z,100995.25
2017-06-19T14:39:27.478Z,100990.24
2017-06-19T14:41:53.811Z,100987.26
2017-06-19T14:44:20.148Z,100983.80
2017-06-19T14:46:46.564Z,100980.11
2017-06-19T14:49:12.901Z,100982.35
2017-06-19T14:51:42.310Z,100975.38
2017-06-19T14:54:08.665Z,100970.92
2017-06-19T14:56:35.006Z,100978.66
2017-06-19T14:59:02.047Z,100971.06
2017-06-19T15:01:28.493Z,100973.53
2017-06-19T15:03:54.839Z,100972.88
2017-06-19T15:06:21.183Z,100973.91
2017-06-19T15:08:47.530Z,100974.12
2017-06-19T15:11:13.914Z,100962.69
2017-06-19T15:13:40.282Z,100964.33
2017-06-19T15:16:06.615Z,100951.69
2017-06-19T15:18:32.933Z,100948.94
2017-06-19T15:21:05.369Z,100950.20
2017-06-19T15:23:31.752Z,100950.99
2017-06-19T15:25:58.056Z,100936.25
2017-06-19T15:28:24.354Z,100934.05
2017-06-19T15:30:50.718Z,100939.22
2017-06-19T15:33:17.052Z,100936.88
2017-06-19T15:35:43.383Z,100933.31
2017-06-19T15:38:09.678Z,100923.41
2017-06-19T15:40:36.935Z,100935.97
2017-06-19T15:43:03.304Z,100938.09
2017-06-19T15:45:29.617Z,100936.23
2017-06-19T15:47:55.923Z,100935.22
2017-06-19T15:50:22.305Z,100934.94
2017-06-19T15:52:48.615Z,100930.27
2017-06-19T15:55:14.938Z,100936.39
2017-06-19T15:57:41.410Z,100935.27
2017-06-19T16:00:07.786Z,100931.65
2017-06-19T16:02:34.812Z,100923.98
2017-06-19T16:05:01.175Z,100922.86
2017-06-19T16:07:27.514Z,100923.98
2017-06-19T16:09:53.981Z,100926.70
2017-06-19T16:12:20.539Z,100925.27
2017-06-19T16:14:46.889Z,100916.30
2017-06-19T16:17:13.676Z,100913.80
2017-06-19T16:19:39.967Z,100916.16
2017-06-19T16:22:06.285Z,100914.35
2017-06-19T16:24:33.029Z,100918.78
2017-06-19T16:26:59.354Z,100905.64
2017-06-19T16:29:26.107Z,100901.63
2017-06-19T16:31:52.421Z,100905.53
2017-06-19T16:34:19.234Z,100905.81
2017-06-19T16:36:45.603Z,100910.62
2017-06-19T16:39:11.956Z,100900.66
2017-06-19T16:41:38.407Z,100893.80
2017-06-19T16:44:04.738Z,100896.66
2017-06-19T16:46:31.095Z,100887.99
2017-06-19T16:48:57.429Z,100894.19
2017-06-19T16:51:24.783Z,100892.23
2017-06-19T16:53:51.373Z,100896.50
2017-06-19T16:56:18.254Z,100897.84
2017-06-19T16:58:45.068Z,100896.58
2017-06-19T17:01:12.365Z,100897.22
2017-06-19T17:03:44.207Z,100892.26
2017-06-19T17:06:11.344Z,100895.88
2017-06-19T17:08:47.985Z,100889.67
2017-06-19T17:11:14.657Z,100882.48
2017-06-19T17:13:41.054Z,100888.47
2017-06-19T17:16:07.553Z,100886.50
2017-06-19T17:18:34.337Z,100890.87
2017-06-19T17:21:00.762Z,100888.12
2017-06-19T17:23:27.104Z,100889.35
2017-06-19T17:25:53.459Z,100886.61
2017-06-19T17:28:19.813Z,100886.14
2017-06-19T17:30:46.377Z,100880.80
2017-06-19T17:33:12.810Z,100875.25
2017-06-19T17:35:39.227Z,100880.77
2017-06-19T17:38:05.765Z,100882.33
2017-06-19T17:40:38.378Z,100885.16
2017-06-19T17:43:07.314Z,100878.74
2017-06-19T17:45:33.915Z,100881.66
2017-06-19T17:48:05.617Z,100882.06
2017-06-19T17:50:32.076Z,100890.72
2017-06-19T17:53:00.908Z,100885.77
2017-06-19T17:55:27.493Z,100886.08
2017-06-19T17:57:53.914Z,100888.73
2017-06-19T18:00:20.975Z,100886.43
2017-06-19T18:02:47.382Z,100890.70
2017-06-19T18:05:13.805Z,100889.50
2017-06-19T18:07:40.271Z,100887.44
2017-06-19T18:10:06.688Z,100890.84
2017-06-19T18:12:33.112Z,100899.19
2017-06-19T18:14:59.578Z,100896.41
2017-06-19T18:17:26.066Z,100903.86
2017-06-19T18:19:52.466Z,100899.72
2017-06-19T18:22:18.892Z,100901.23
2017-06-19T18:24:45.262Z,100896.52
2017-06-19T18:27:11.718Z,100897.24
2017-06-19T18:29:38.181Z,100896.69
2017-06-19T18:32:04.651Z,100894.83
2017-06-19T18:34:31.055Z,100898.00
2017-06-19T18:36:57.555Z,100896.94
2017-06-19T18:39:23.940Z,100901.09
2017-06-19T18:41:52.435Z,100895.08
2017-06-19T18:44:19.170Z,100897.22
2017-06-19T18:46:51.642Z,100896.33
2017-06-19T18:49:18.111Z,100889.30
2017-06-19T18:51:44.538Z,100895.45
2017-06-19T18:54:10.900Z,100879.14
2017-06-19T18:56:37.270Z,100888.14
2017-06-19T18:59:03.743Z,100887.64
2017-06-19T19:01:30.141Z,100896.27
2017-06-19T19:03:56.588Z,100889.48
2017-06-19T19:06:23.010Z,100886.25
2017-06-19T19:08:49.365Z,100889.83
2017-06-19T19:11:15.694Z,100882.12
2017-06-19T19:13:42.055Z,100886.14
2017-06-19T19:16:08.492Z,100895.19
2017-06-19T19:18:34.886Z,100894.94
2017-06-19T19:21:01.274Z,100897.76
2017-06-19T19:23:27.650Z,100896.09
2017-06-19T19:25:54.009Z,100900.52
2017-06-19T19:28:20.377Z,100899.95
2017-06-19T19:30:46.757Z,100900.52
2017-06-19T19:33:13.146Z,100903.59
2017-06-19T19:35:39.659Z,100901.15
2017-06-19T19:38:06.024Z,100898.55
2017-06-19T19:40:32.408Z,100906.12
2017-06-19T19:42:58.931Z,100909.38
2017-06-19T19:45:25.329Z,100911.92
2017-06-19T19:47:52.154Z,100914.20
2017-06-19T19:50:19.104Z,100913.73
2017-06-19T19:52:45.485Z,100912.97
2017-06-19T19:55:11.880Z,100914.49
2017-06-19T19:57:38.389Z,100912.48
2017-06-19T20:00:05.006Z,100919.46
2017-06-19T20:02:32.304Z,100921.70
2017-06-19T20:04:59.974Z,100920.16
2017-06-19T20:07:26.383Z,100921.45
2017-06-19T20:09:53.005Z,100921.89
2017-06-19T20:12:19.672Z,100918.61
2017-06-19T20:14:46.082Z,100919.27
2017-06-19T20:17:12.516Z,100917.39
2017-06-19T20:19:38.900Z,100918.97
2017-06-19T20:22:06.057Z,100922.06
2017-06-19T20:24:32.460Z,100920.50
2017-06-19T20:26:58.901Z,100921.50
2017-06-19T20:29:25.444Z,100922.20
2017-06-19T20:31:51.857Z,100924.09
2017-06-19T20:34:18.285Z,100920.58
2017-06-19T20:36:44.631Z,100914.94
2017-06-19T20:39:11.259Z,100918.59
2017-06-19T20:41:37.737Z,100925.45
2017-06-19T20:44:04.081Z,100919.27
2017-06-19T20:46:30.526Z,100923.41
2017-06-19T20:48:57.086Z,100918.74
2017-06-19T20:51:23.443Z,100918.12
2017-06-19T20:53:49.855Z,100920.01
2017-06-19T20:56:16.254Z,100921.64
2017-06-19T20:58:42.630Z,100920.78
2017-06-19T21:01:11.739Z,100919.78
2017-06-19T21:03:42.000Z,100916.70
2017-06-19T21:06:12.317Z,100915.37
2017-06-19T21:08:38.959Z,100914.12
2017-06-19T21:11:05.347Z,100911.45
2017-06-19T21:13:31.752Z,100907.21
2017-06-19T21:15:58.135Z,100914.69
2017-06-19T21:18:24.547Z,100917.75
2017-06-19T21:20:50.941Z,100924.19
2017-06-19T21:23:17.332Z,100921.03
2017-06-19T21:25:43.739Z,100922.39
2017-06-19T21:28:10.111Z,100921.08
2017-06-19T21:30:36.625Z,100926.33
2017-06-19T21:33:03.014Z,100921.94
2017-06-19T21:35:29.400Z,100919.62
2017-06-19T21:37:55.805Z,100915.00
2017-06-19T21:40:22.757Z,100911.61
2017-06-19T21:42:49.271Z,100915.36
2017-06-19T21:45:15.663Z,100908.63
2017-06-19T21:47:42.047Z,100912.94
2017-06-19T21:50:08.730Z,100916.73
2017-06-19T21:52:35.119Z,100919.95
2017-06-19T21:55:01.530Z,100918.06
2017-06-19T21:57:27.913Z,100919.15
2017-06-19T21:59:54.348Z,100924.20
2017-06-19T22:02:20.894Z,100914.58
2017-06-19T22:04:47.279Z,100922.27
2017-06-19T22:07:13.637Z,100923.76
2017-06-19T22:09:39.997Z,100921.91
2017-06-19T22:12:06.842Z,100917.22
2017-06-19T22:14:33.718Z,100921.16
2017-06-19T22:17:00.687Z,100913.13
2017-06-19T22:19:27.192Z,100908.19
2017-06-19T22:22:01.453Z,100911.83
2017-06-19T22:24:27.957Z,100909.88
2017-06-19T22:26:54.350Z,100918.06
2017-06-19T22:29:20.744Z,100917.56
2017-06-19T22:31:47.995Z,100906.98
2017-06-19T22:34:14.878Z,100913.38
2017-06-19T22:36:41.287Z,100913.92
2017-06-19T22:39:08.195Z,100916.45
2017-06-19T22:41:35.277Z,100916.13
2017-06-19T22:44:01.813Z,100919.58
2017-06-19T22:46:28.273Z,100917.08
2017-06-19T22:48:54.691Z,100912.21
2017-06-19T22:51:21.123Z,100911.27
2017-06-19T22:53:47.522Z,100908.43
2017-06-19T22:56:14.341Z,100902.81
2017-06-19T22:58:42.068Z,100904.38
2017-06-19T23:01:08.896Z,100907.14
2017-06-19T23:03:35.504Z,100905.25
2017-06-19T23:06:02.107Z,100909.48
2017-06-19T23:08:28.593Z,100907.05
2017-06-19T23:10:55.022Z,100905.98
2017-06-19T23:13:21.824Z,100905.70
2017-06-19T23:15:48.484Z,100905.56
2017-06-19T23:18:14.952Z,100904.61
2017-06-19T23:20:41.573Z,100905.13
2017-06-19T23:23:07.960Z,100903.84
2017-06-19T23:25:34.466Z,100891.37
2017-06-19T23:28:00.896Z,100889.61
2017-06-19T23:30:27.339Z,100899.06
2017-06-19T23:32:54.114Z,100900.91
2017-06-19T23:35:20.470Z,100906.09
2017-06-19T23:37:47.231Z,100905.32
2017-06-19T23:40:13.687Z,100901.50
2017-06-19T23:42:40.095Z,100899.48
2017-06-19T23:45:06.450Z,100898.91
2017-06-19T23:47:32.946Z,100890.70
2017-06-19T23:49:59.341Z,100893.70
2017-06-19T23:52:25.747Z,100885.80
2017-06-19T23:54:52.162Z,100889.52
2017-06-19T23:57:18.604Z,100888.03
2017-06-19T23:59:45.012Z,100884.56
